createdAt,value
2022-11-19T05:01:12.267Z,-2.60
2022-11-19T05:03:40.551Z,-2.70
2022-11-19T05:06:09.199Z,-2.60
2022-11-19T05:08:37.431Z,-2.60
2022-11-19T05:11:06.208Z,-2.60
2022-11-19T05:13:34.390Z,-2.60
2022-11-19T05:16:02.642Z,-2.60
2022-11-19T05:18:32.066Z,-2.60
2022-11-19T05:21:00.334Z,-2.60
2022-11-19T05:23:29.257Z,-2.50
2022-11-19T05:25:57.439Z,-2.50
2022-11-19T05:28:38.136Z,-2.50
2022-11-19T05:31:08.491Z,-2.50
2022-11-19T05:33:38.175Z,-2.50
2022-11-19T05:36:07.715Z,-2.40
2022-11-19T05:38:36.015Z,-2.30
2022-11-19T05:41:04.241Z,-2.30
2022-11-19T05:43:32.413Z,-2.20
2022-11-19T05:46:01.589Z,-2.20
2022-11-19T05:48:29.866Z,-2.10
2022-11-19T05:50:59.388Z,-2.10
2022-11-19T05:53:28.334Z,-2.10
2022-11-19T05:55:56.500Z,-2.10
2022-11-19T05:58:25.181Z,-2.10
2022-11-19T06:00:56.855Z,-2.00
2022-11-19T06:03:25.188Z,-2.00
2022-11-19T06:05:54.567Z,-1.90
2022-11-19T06:08:24.179Z,-1.90
2022-11-19T06:10:52.368Z,-2.00
2022-11-19T06:13:20.714Z,-2.00
2022-11-19T06:15:49.301Z,-2.00
2022-11-19T06:18:17.470Z,-2.00
2022-11-19T06:20:45.678Z,-2.10
2022-11-19T06:23:13.945Z,-2.10
2022-11-19T06:25:43.369Z,-2.10
2022-11-19T06:28:11.473Z,-2.10
2022-11-19T06:30:39.643Z,-2.20
2022-11-19T06:33:07.792Z,-2.20
2022-11-19T06:35:35.945Z,-2.20
2022-11-19T06:38:04.127Z,-2.30
2022-11-19T06:40:32.318Z,-2.40
2022-11-19T06:43:01.915Z,-2.40
2022-11-19T06:45:30.075Z,-2.40
2022-11-19T06:47:58.206Z,-2.50
2022-11-19T06:50:26.360Z,-2.50
2022-11-19T06:52:54.508Z,-2.50
2022-11-19T06:55:22.711Z,-2.50
2022-11-19T06:57:50.883Z,-2.50
2022-11-19T07:00:21.058Z,-2.40
2022-11-19T07:02:49.227Z,-2.40
2022-11-19T07:05:17.558Z,-2.40
2022-11-19T07:07:45.677Z,-2.30
2022-11-19T07:10:13.843Z,-2.30
2022-11-19T07:12:41.993Z,-2.20
2022-11-19T07:15:12.042Z,-2.20
2022-11-19T07:17:42.464Z,-2.10
2022-11-19T07:20:12.095Z,-2.10
2022-11-19T07:22:42.395Z,-2.00
2022-11-19T07:25:13.308Z,-1.90
2022-11-19T07:27:42.615Z,-1.80
2022-11-19T07:30:12.046Z,-1.80
2022-11-19T07:32:42.328Z,-1.70
2022-11-19T07:35:11.927Z,-1.70
2022-11-19T07:37:40.349Z,-1.80
2022-11-19T07:40:11.035Z,-1.80
2022-11-19T07:42:50.420Z,-1.70
2022-11-19T07:45:21.742Z,-1.70
2022-11-19T07:47:51.411Z,-1.70
2022-11-19T07:50:19.896Z,-1.60
2022-11-19T07:52:48.027Z,-1.60
2022-11-19T07:55:16.475Z,-1.50
2022-11-19T07:57:44.625Z,-1.40
2022-11-19T08:00:14.690Z,-1.40
2022-11-19T08:02:42.904Z,-1.30
2022-11-19T08:05:12.570Z,-1.20
2022-11-19T08:07:40.974Z,-1.10
2022-11-19T08:10:11.376Z,-1.00
2022-11-19T08:12:39.512Z,-0.90
2022-11-19T08:15:09.656Z,-0.80
2022-11-19T08:18:04.206Z,-0.60
2022-11-19T08:20:34.112Z,-0.40
2022-11-19T08:23:02.235Z,-0.20
2022-11-19T08:25:30.384Z,0.00
2022-11-19T08:27:58.556Z,0.20
2022-11-19T08:30:26.778Z,0.40
2022-11-19T08:32:54.914Z,0.40
2022-11-19T08:35:23.195Z,0.40
2022-11-19T08:37:52.747Z,0.50
2022-11-19T08:40:21.189Z,0.60
2022-11-19T08:43:07.213Z,0.70
2022-11-19T08:45:39.460Z,0.80
2022-11-19T08:48:10.393Z,0.90
2022-11-19T08:50:38.795Z,0.90
2022-11-19T08:53:08.343Z,0.90
2022-11-19T08:55:36.518Z,0.80
2022-11-19T08:58:07.800Z,1.00
2022-11-19T09:00:38.433Z,1.10
2022-11-19T09:03:06.650Z,1.20
2022-11-19T09:05:34.881Z,1.30
2022-11-19T09:08:03.022Z,1.40
2022-11-19T09:10:32.568Z,1.60
2022-11-19T09:13:03.019Z,1.70
2022-11-19T09:15:31.228Z,1.80
2022-11-19T09:17:59.373Z,1.90
2022-11-19T09:20:27.566Z,1.90
2022-11-19T09:22:55.795Z,1.90
2022-11-19T09:25:23.906Z,2.00
2022-11-19T09:27:53.390Z,2.20
2022-11-19T09:30:21.632Z,2.20
2022-11-19T09:32:49.835Z,2.30
2022-11-19T09:35:18.088Z,2.30
2022-11-19T09:37:46.262Z,2.20
2022-11-19T09:40:20.215Z,2.10
2022-11-19T09:43:07.739Z,2.00
2022-11-19T09:45:54.807Z,1.90
2022-11-19T09:48:35.131Z,1.90
2022-11-19T09:51:09.338Z,2.10
2022-11-19T09:53:46.721Z,2.40
2022-11-19T09:56:23.458Z,2.50
2022-11-19T09:58:53.835Z,2.80
2022-11-19T10:01:22.083Z,3.00
2022-11-19T10:03:54.389Z,3.10
2022-11-19T10:06:31.347Z,3.00
2022-11-19T10:09:27.284Z,2.80
2022-11-19T10:12:13.943Z,2.70
2022-11-19T10:15:10.406Z,2.50
2022-11-19T10:17:57.922Z,2.50
2022-11-19T10:21:01.709Z,2.60
2022-11-19T10:23:47.359Z,2.70
2022-11-19T10:26:18.758Z,2.80
2022-11-19T10:28:56.101Z,2.80
2022-11-19T10:31:34.626Z,2.80
2022-11-19T10:34:15.551Z,2.70
2022-11-19T10:36:49.236Z,2.60
2022-11-19T10:39:25.881Z,2.50
2022-11-19T10:42:00.494Z,2.60
2022-11-19T10:44:43.854Z,2.60
2022-11-19T10:47:20.426Z,2.60
2022-11-19T10:49:54.090Z,2.80
2022-11-19T10:52:32.563Z,2.90
2022-11-19T10:55:15.032Z,3.00
2022-11-19T10:57:44.645Z,2.90
2022-11-19T11:00:14.681Z,2.90
2022-11-19T11:02:48.844Z,3.00
2022-11-19T11:05:19.968Z,3.20
2022-11-19T11:07:57.578Z,3.70
2022-11-19T11:10:34.916Z,4.00
2022-11-19T11:13:49.171Z,4.30
2022-11-19T11:16:22.420Z,4.40
2022-11-19T11:18:55.892Z,4.60
2022-11-19T11:21:38.179Z,4.60
2022-11-19T11:24:08.414Z,4.60
2022-11-19T11:26:37.875Z,4.60
2022-11-19T11:29:25.115Z,4.70
2022-11-19T11:31:53.734Z,4.70
2022-11-19T11:34:36.943Z,4.70
2022-11-19T11:37:09.669Z,4.80
2022-11-19T11:39:44.185Z,5.20
2022-11-19T11:42:18.693Z,5.60
2022-11-19T11:44:53.620Z,5.70
2022-11-19T11:47:26.679Z,5.70
2022-11-19T11:50:08.941Z,5.30
2022-11-19T11:52:44.593Z,5.50
2022-11-19T11:55:33.538Z,5.80
2022-11-19T11:58:05.456Z,6.10
2022-11-19T12:00:38.052Z,6.30
2022-11-19T12:03:10.138Z,6.20
2022-11-19T12:05:51.937Z,6.20
2022-11-19T12:08:46.915Z,5.70
2022-11-19T12:11:25.036Z,5.30
2022-11-19T12:14:09.635Z,5.10
2022-11-19T12:17:03.127Z,4.90
2022-11-19T12:20:03.725Z,5.20
2022-11-19T12:22:48.919Z,5.80
2022-11-19T12:25:32.142Z,5.90
2022-11-19T12:28:28.189Z,5.70
2022-11-19T12:31:18.759Z,5.60
2022-11-19T12:34:10.125Z,5.80
2022-11-19T12:36:56.770Z,6.10
2022-11-19T12:39:44.542Z,6.70
2022-11-19T12:42:49.227Z,6.60
2022-11-19T12:45:30.549Z,6.40
2022-11-19T12:48:32.926Z,6.20
2022-11-19T12:51:12.800Z,5.90
2022-11-19T12:54:04.854Z,6.10
2022-11-19T12:56:47.400Z,6.30
2022-11-19T12:59:38.771Z,6.00
2022-11-19T13:02:18.850Z,5.50
2022-11-19T13:04:53.900Z,5.10
2022-11-19T13:07:28.325Z,4.80
2022-11-19T13:10:04.072Z,4.80
2022-11-19T13:12:38.585Z,4.70
2022-11-19T13:15:18.542Z,4.60
2022-11-19T13:17:52.590Z,4.60
2022-11-19T13:20:30.145Z,4.40
2022-11-19T13:23:05.676Z,4.30
2022-11-19T13:25:41.154Z,4.30
2022-11-19T13:28:21.396Z,4.30
2022-11-19T13:30:54.965Z,4.30
2022-11-19T13:33:29.443Z,4.20
2022-11-19T13:36:06.215Z,4.00
2022-11-19T13:38:45.674Z,4.00
2022-11-19T13:41:19.890Z,3.90
2022-11-19T13:44:07.483Z,3.90
2022-11-19T13:46:42.673Z,3.80
2022-11-19T13:49:21.094Z,3.60
2022-11-19T13:51:56.661Z,3.50
2022-11-19T13:54:28.619Z,3.40
2022-11-19T13:56:59.316Z,3.30
2022-11-19T13:59:40.852Z,3.40
2022-11-19T14:02:48.191Z,3.40
2022-11-19T14:05:42.717Z,3.30
2022-11-19T14:08:37.709Z,3.20
2022-11-19T14:11:32.840Z,3.00
2022-11-19T14:14:50.398Z,3.00
2022-11-19T14:17:48.571Z,3.10
2022-11-19T14:20:54.444Z,2.90
2022-11-19T14:24:04.450Z,2.80
2022-11-19T14:27:20.151Z,2.60
2022-11-19T14:30:01.660Z,2.50
2022-11-19T14:32:45.407Z,2.50
2022-11-19T14:35:42.043Z,2.50
2022-11-19T14:38:37.615Z,2.50
2022-11-19T14:41:33.320Z,2.50
2022-11-19T14:44:36.106Z,2.60
2022-11-19T14:47:34.362Z,2.60
2022-11-19T14:50:08.077Z,2.50
2022-11-19T14:52:49.864Z,2.50
2022-11-19T14:55:24.162Z,2.50
2022-11-19T14:58:00.539Z,2.40
2022-11-19T15:00:33.609Z,2.30
2022-11-19T15:03:07.410Z,2.20
2022-11-19T15:05:41.959Z,2.00
2022-11-19T15:08:31.019Z,1.80
2022-11-19T15:11:08.680Z,1.70
2022-11-19T15:13:39.204Z,1.70
2022-11-19T15:16:12.672Z,1.60
2022-11-19T15:19:32.204Z,1.60
2022-11-19T15:22:41.303Z,1.50
2022-11-19T15:25:28.211Z,1.40
2022-11-19T15:28:14.127Z,1.40
2022-11-19T15:30:59.638Z,1.30
2022-11-19T15:34:49.079Z,1.30
2022-11-19T15:37:31.128Z,1.30
2022-11-19T15:40:00.818Z,1.20
2022-11-19T15:42:38.352Z,1.20
2022-11-19T15:45:16.600Z,1.20
2022-11-19T15:47:52.443Z,1.20
2022-11-19T15:50:24.909Z,1.10
2022-11-19T15:53:00.423Z,1.20
2022-11-19T15:55:32.069Z,1.30
2022-11-19T15:58:07.668Z,1.30
2022-11-19T16:00:46.752Z,1.20
2022-11-19T16:03:16.065Z,1.20
2022-11-19T16:06:02.933Z,1.20
2022-11-19T16:08:32.190Z,1.10
2022-11-19T16:11:20.588Z,1.10
2022-11-19T16:14:10.747Z,1.10
2022-11-19T16:17:02.964Z,1.10
2022-11-19T16:19:31.246Z,1.10
2022-11-19T16:22:04.441Z,1.00
2022-11-19T16:24:50.856Z,1.00
2022-11-19T16:27:24.972Z,1.10
2022-11-19T16:29:53.499Z,1.00
2022-11-19T16:32:25.268Z,1.10
2022-11-19T16:34:53.606Z,1.00
2022-11-19T16:37:23.923Z,1.00
2022-11-19T16:39:55.677Z,1.00
2022-11-19T16:42:27.274Z,1.00
2022-11-19T16:44:57.858Z,1.00
2022-11-19T16:47:31.909Z,1.00
2022-11-19T16:50:05.480Z,1.00
2022-11-19T16:52:40.514Z,1.10
2022-11-19T16:55:43.844Z,1.00
2022-11-19T16:58:19.684Z,1.00
2022-11-19T17:00:51.717Z,1.00
2022-11-19T17:03:39.562Z,1.00
2022-11-19T17:06:10.075Z,1.00
2022-11-19T17:08:39.899Z,1.10
2022-11-19T17:11:38.564Z,1.10
2022-11-19T17:14:21.288Z,1.10
2022-11-19T17:16:51.744Z,1.10
2022-11-19T17:19:33.058Z,1.00
2022-11-19T17:22:06.086Z,1.10
2022-11-19T17:24:44.291Z,1.10
2022-11-19T17:27:26.423Z,1.20
2022-11-19T17:30:02.723Z,1.20
2022-11-19T17:32:39.737Z,1.20
2022-11-19T17:35:10.842Z,1.20
2022-11-19T17:37:38.981Z,1.30
2022-11-19T17:40:10.213Z,1.20
2022-11-19T17:42:56.658Z,1.20
2022-11-19T17:45:24.822Z,1.20
2022-11-19T17:47:53.208Z,1.20
2022-11-19T17:50:21.715Z,1.20
2022-11-19T17:52:50.308Z,1.10
2022-11-19T17:55:23.423Z,1.20
2022-11-19T17:57:51.694Z,1.20
2022-11-19T18:00:20.205Z,1.20
2022-11-19T18:02:49.296Z,1.20
2022-11-19T18:05:22.997Z,1.30
2022-11-19T18:07:51.604Z,1.30
2022-11-19T18:10:22.234Z,1.30
2022-11-19T18:12:50.370Z,1.30
2022-11-19T18:15:21.663Z,1.30
2022-11-19T18:17:49.907Z,1.30
2022-11-19T18:20:18.228Z,1.40
2022-11-19T18:22:47.705Z,1.30
2022-11-19T18:25:19.264Z,1.40
2022-11-19T18:27:49.147Z,1.40
2022-11-19T18:30:18.397Z,1.50
2022-11-19T18:32:46.598Z,1.50
2022-11-19T18:35:18.413Z,1.50
2022-11-19T18:37:47.215Z,1.60
2022-11-19T18:40:16.765Z,1.60
2022-11-19T18:42:59.312Z,1.60
2022-11-19T18:45:29.535Z,1.60
2022-11-19T18:47:57.748Z,1.60
2022-11-19T18:50:29.839Z,1.60
2022-11-19T18:52:58.680Z,1.60
2022-11-19T18:55:26.941Z,1.60
2022-11-19T18:57:55.116Z,1.70
2022-11-19T19:00:23.574Z,1.70
2022-11-19T19:02:53.814Z,1.80
2022-11-19T19:05:22.054Z,1.70
2022-11-19T19:07:50.254Z,1.70
2022-11-19T19:10:18.587Z,1.70
2022-11-19T19:12:45.814Z,1.70
2022-11-19T19:15:15.305Z,1.70
2022-11-19T19:17:43.792Z,1.70
2022-11-19T19:20:14.356Z,1.70
2022-11-19T19:22:42.553Z,1.70
2022-11-19T19:25:11.086Z,1.70
2022-11-19T19:27:39.751Z,1.70
2022-11-19T19:30:10.133Z,1.80
2022-11-19T19:32:38.402Z,1.80
2022-11-19T19:35:08.177Z,1.80
2022-11-19T19:37:37.791Z,1.90
2022-11-19T19:40:07.793Z,1.90
2022-11-19T19:42:41.091Z,1.80
2022-11-19T19:45:11.401Z,1.90
2022-11-19T19:47:39.570Z,1.90
2022-11-19T19:50:08.612Z,1.90
2022-11-19T19:52:38.481Z,1.90
2022-11-19T19:55:08.031Z,1.90
2022-11-19T19:57:36.244Z,1.80
2022-11-19T20:00:05.824Z,1.80
2022-11-19T20:02:33.957Z,1.80
2022-11-19T20:05:02.102Z,1.80
2022-11-19T20:07:30.339Z,1.80
2022-11-19T20:09:59.937Z,1.80
2022-11-19T20:12:48.073Z,1.80
2022-11-19T20:15:16.351Z,1.80
2022-11-19T20:17:44.530Z,1.90
2022-11-19T20:20:13.836Z,1.80
2022-11-19T20:22:42.001Z,1.80
2022-11-19T20:25:11.845Z,1.80
2022-11-19T20:27:40.279Z,1.70
2022-11-19T20:30:10.494Z,1.70
2022-11-19T20:32:38.690Z,1.70
2022-11-19T20:35:07.776Z,1.70
2022-11-19T20:37:35.901Z,1.60
2022-11-19T20:40:04.390Z,1.70
2022-11-19T20:42:51.823Z,1.70
2022-11-19T20:45:20.015Z,1.60
2022-11-19T20:47:48.611Z,1.60
2022-11-19T20:50:17.547Z,1.60
2022-11-19T20:52:45.772Z,1.50
2022-11-19T20:55:14.010Z,1.50
2022-11-19T20:57:43.507Z,1.40
2022-11-19T21:00:14.126Z,1.40
2022-11-19T21:02:42.282Z,1.30
2022-11-19T21:05:10.597Z,1.30
2022-11-19T21:07:38.857Z,1.30
2022-11-19T21:10:08.273Z,1.30
2022-11-19T21:12:36.536Z,1.30
2022-11-19T21:15:07.022Z,1.30
2022-11-19T21:17:35.210Z,1.20
2022-11-19T21:20:03.370Z,1.20
2022-11-19T21:22:31.725Z,1.20
2022-11-19T21:25:00.372Z,1.20
2022-11-19T21:27:28.652Z,1.20
2022-11-19T21:29:56.907Z,1.20
2022-11-19T21:32:26.841Z,1.20
2022-11-19T21:34:55.028Z,1.10
2022-11-19T21:37:23.289Z,1.10
2022-11-19T21:39:51.517Z,1.10
2022-11-19T21:42:19.710Z,1.10
2022-11-19T21:44:48.348Z,1.10
2022-11-19T21:47:16.497Z,1.10
2022-11-19T21:49:46.056Z,1.10
2022-11-19T21:52:14.275Z,1.20
2022-11-19T21:54:42.424Z,1.10
2022-11-19T21:57:10.689Z,1.10
2022-11-19T21:59:38.917Z,1.10
